Time;durP1;ratioP1;P1;durP2;ratioP2;P2;SDS_P1;SDS_P2;PMS_P1;PMS_P2;Temp;Humidity;BMP_temperature;BMP_pressure;BME280_temperature;BME280_humidity;BME280_pressure;Samples;Min_cycle;Max_cycle;Signal;HPM_P1;HPM_P2
2022/04/17 00:01:17;;;;;;;0.00;0.00;;;10.00;65.90;;;;;;4155308;28;20417;-67
2022/04/17 00:03:39;;;;;;;0.00;0.00;;;10.00;65.90;;;;;;4155516;28;20045;-70
2022/04/17 00:06:03;;;;;;;0.00;0.00;;;9.90;66.10;;;;;;4155238;28;20083;-75
2022/04/17 00:08:25;;;;;;;0.00;0.00;;;9.80;66.20;;;;;;4168735;28;20067;-67
2022/04/17 00:10:48;;;;;;;0.00;0.00;;;9.90;66.20;;;;;;4168261;28;20049;-70
2022/04/17 00:13:15;;;;;;;0.00;0.00;;;9.90;66.10;;;;;;4168705;28;20067;-68
2022/04/17 00:15:37;;;;;;;0.00;0.00;;;9.80;66.00;;;;;;4168510;28;20045;-68
2022/04/17 00:18:03;;;;;;;0.00;0.00;;;9.90;65.90;;;;;;4168604;28;20065;-70
2022/04/17 00:20:28;;;;;;;0.00;0.00;;;9.90;65.80;;;;;;4155329;28;20056;-67
2022/04/17 00:22:52;;;;;;;0.00;0.00;;;10.00;65.70;;;;;;4168196;28;20409;-70
2022/04/17 00:25:16;;;;;;;0.00;0.00;;;10.00;65.70;;;;;;4155049;28;20085;-70
2022/04/17 00:27:44;;;;;;;0.00;0.00;;;10.00;65.90;;;;;;4154704;28;20056;-68
2022/04/17 00:30:10;;;;;;;0.00;0.00;;;10.00;65.90;;;;;;4168183;28;20045;-67
2022/04/17 00:32:32;;;;;;;0.00;0.00;;;10.00;65.90;;;;;;4154687;28;20092;-68
2022/04/17 00:34:54;;;;;;;0.00;0.00;;;10.00;65.80;;;;;;4140739;28;20384;-68
2022/04/17 00:37:18;;;;;;;0.00;0.00;;;10.00;65.70;;;;;;4168550;28;20486;-67
2022/04/17 00:39:42;;;;;;;0.00;0.00;;;10.00;65.50;;;;;;4154548;28;20044;-70
2022/04/17 00:42:10;;;;;;;0.00;0.00;;;10.00;65.50;;;;;;4168326;28;20042;-70
2022/04/17 00:44:38;;;;;;;0.00;0.00;;;9.90;65.30;;;;;;4154450;28;20124;-65
2022/04/17 00:47:02;;;;;;;0.00;0.00;;;9.90;65.30;;;;;;4166679;28;20087;-69
2022/04/17 00:49:24;;;;;;;0.00;0.00;;;9.80;65.40;;;;;;4168268;28;20069;-70
2022/04/17 00:51:49;;;;;;;0.00;0.00;;;9.70;65.40;;;;;;4154207;28;20380;-68
2022/04/17 00:54:13;;;;;;;0.00;0.00;;;9.70;65.30;;;;;;4154246;28;20045;-65
2022/04/17 00:56:35;;;;;;;0.00;0.00;;;9.70;65.30;;;;;;4168079;28;20395;-68
2022/04/17 00:58:58;;;;;;;0.00;0.00;;;9.70;65.30;;;;;;4153781;28;20073;-66
2022/04/17 01:01:20;;;;;;;0.00;0.00;;;9.70;65.20;;;;;;4168107;28;20046;-68
2022/04/17 01:03:44;;;;;;;0.00;0.00;;;9.70;65.20;;;;;;4168062;28;20498;-68
2022/04/17 01:06:11;;;;;;;0.00;0.00;;;9.60;65.50;;;;;;4154588;28;20096;-68
2022/04/17 01:08:41;;;;;;;0.00;0.00;;;9.50;65.50;;;;;;4167913;28;20064;-70
2022/04/17 01:11:07;;;;;;;0.00;0.00;;;9.40;65.60;;;;;;4167774;28;20044;-69
2022/04/17 01:13:36;;;;;;;0.00;0.00;;;9.30;65.80;;;;;;4167730;28;20430;-67
2022/04/17 01:16:05;;;;;;;0.00;0.00;;;9.20;65.90;;;;;;4167785;28;20115;-67
2022/04/17 01:18:30;;;;;;;0.00;0.00;;;9.30;65.80;;;;;;4181568;28;20134;-69
2022/04/17 01:20:57;;;;;;;0.00;0.00;;;9.30;65.50;;;;;;4181006;28;20135;-67
2022/04/17 01:28:43;;;;;;;0.00;0.00;;;9.00;66.10;;;;;;4181108;28;20454;-69
2022/04/17 01:31:05;;;;;;;0.00;0.00;;;8.90;66.20;;;;;;4167440;28;20048;-69
2022/04/17 01:33:34;;;;;;;0.00;0.00;;;8.90;66.00;;;;;;4181211;28;20466;-65
2022/04/17 01:35:59;;;;;;;0.00;0.00;;;8.90;65.90;;;;;;4181196;28;20087;-68
2022/04/17 01:38:23;;;;;;;0.00;0.00;;;8.80;66.00;;;;;;4167281;28;20088;-65
2022/04/17 01:40:45;;;;;;;0.00;0.00;;;8.80;66.00;;;;;;4180694;28;20099;-69
2022/04/17 01:43:12;;;;;;;0.00;0.00;;;8.70;66.00;;;;;;4153594;28;20045;-66
2022/04/17 01:45:34;;;;;;;0.00;0.00;;;8.70;66.20;;;;;;4181209;28;20045;-66
2022/04/17 01:47:59;;;;;;;0.00;0.00;;;8.70;66.10;;;;;;4181134;28;20045;-69
2022/04/17 01:50:24;;;;;;;0.00;0.00;;;8.70;66.10;;;;;;4167297;28;20048;-67
2022/04/17 01:52:46;;;;;;;0.00;0.00;;;8.60;65.90;;;;;;4166715;28;20041;-66
2022/04/17 01:55:08;;;;;;;0.00;0.00;;;8.60;65.90;;;;;;4181053;28;20029;-67
2022/04/17 01:57:32;;;;;;;0.00;0.00;;;8.60;65.80;;;;;;4167113;28;20330;-72
2022/04/17 01:59:54;;;;;;;0.00;0.00;;;8.60;65.70;;;;;;4180966;28;20049;-69
2022/04/17 02:02:16;;;;;;;0.00;0.00;;;8.50;65.50;;;;;;4180848;28;20037;-68
2022/04/17 02:04:38;;;;;;;0.00;0.00;;;8.60;65.30;;;;;;4180953;28;20639;-68
2022/04/17 02:07:01;;;;;;;0.00;0.00;;;8.50;65.30;;;;;;4180296;28;20043;-69
2022/04/17 02:09:23;;;;;;;0.00;0.00;;;8.60;65.20;;;;;;4167017;28;20044;-70
2022/04/17 02:11:48;;;;;;;0.00;0.00;;;8.50;65.10;;;;;;4180670;28;20102;-68
2022/04/17 02:14:13;;;;;;;0.00;0.00;;;8.40;65.20;;;;;;4180949;28;20399;-70
2022/04/17 02:16:36;;;;;;;0.00;0.00;;;8.30;65.40;;;;;;4167240;28;20057;-66
2022/04/17 02:19:00;;;;;;;0.00;0.00;;;8.10;65.80;;;;;;4166550;28;20053;-72
2022/04/17 02:21:24;;;;;;;0.00;0.00;;;8.00;66.00;;;;;;4180759;28;20532;-68
2022/04/17 02:23:49;;;;;;;0.00;0.00;;;7.90;66.30;;;;;;4166598;28;20053;-68
2022/04/17 02:26:17;;;;;;;0.00;0.00;;;7.70;66.80;;;;;;4139536;28;20145;-67
2022/04/17 02:28:40;;;;;;;0.00;0.00;;;7.60;67.20;;;;;;4180434;28;20056;-69
2022/04/17 02:31:03;;;;;;;0.00;0.00;;;7.60;67.20;;;;;;4180159;28;20087;-71
2022/04/17 02:33:25;;;;;;;0.00;0.00;;;7.50;67.10;;;;;;4180373;28;20037;-71
2022/04/17 02:35:52;;;;;;;0.00;0.00;;;7.60;67.20;;;;;;4180424;28;20041;-65
2022/04/17 02:38:14;;;;;;;0.00;0.00;;;7.60;67.00;;;;;;4180262;28;20389;-71
2022/04/17 02:40:36;;;;;;;0.00;0.00;;;7.60;67.20;;;;;;4180393;28;20103;-65
2022/04/17 02:42:59;;;;;;;0.00;0.00;;;7.60;66.90;;;;;;4179888;28;20337;-67
2022/04/17 02:45:23;;;;;;;0.00;0.00;;;7.50;67.00;;;;;;4166384;28;20037;-69
2022/04/17 02:47:50;;;;;;;0.00;0.00;;;7.40;67.10;;;;;;4180597;28;20382;-72
2022/04/17 02:50:16;;;;;;;0.00;0.00;;;7.40;67.50;;;;;;4180192;28;20037;-68
2022/04/17 02:52:38;;;;;;;0.00;0.00;;;7.20;67.60;;;;;;4180366;28;20522;-68
2022/04/17 02:55:05;;;;;;;0.00;0.00;;;7.30;67.70;;;;;;4166160;28;20243;-68
2022/04/17 02:57:28;;;;;;;0.00;0.00;;;7.40;67.50;;;;;;4166386;28;20128;-66
2022/04/17 02:59:55;;;;;;;0.00;0.00;;;7.40;67.40;;;;;;4166295;28;20053;-66
2022/04/17 03:07:45;;;;;;;0.00;0.00;;;7.40;67.10;;;;;;4166482;28;20061;-68
2022/04/17 03:10:10;;;;;;;0.00;0.00;;;7.20;67.50;;;;;;4180934;28;20045;-67
2022/04/17 03:12:36;;;;;;;0.00;0.00;;;7.20;67.60;;;;;;4183298;28;20053;-70
2022/04/17 03:14:58;;;;;;;0.00;0.00;;;7.20;67.70;;;;;;4183388;28;20037;-68
2022/04/17 03:17:20;;;;;;;0.00;0.00;;;7.10;68.30;;;;;;4169509;28;20107;-65
2022/04/17 03:19:46;;;;;;;0.00;0.00;;;7.00;68.10;;;;;;4169613;28;20111;-69
2022/04/17 03:22:10;;;;;;;0.00;0.00;;;7.10;68.00;;;;;;4169912;28;20047;-68
2022/04/17 03:24:35;;;;;;;0.00;0.00;;;7.10;67.90;;;;;;4169486;28;20041;-66
2022/04/17 03:26:59;;;;;;;0.00;0.00;;;7.10;67.80;;;;;;4169127;28;20084;-68
2022/04/17 03:29:24;;;;;;;0.00;0.00;;;7.10;67.90;;;;;;4169792;28;20041;-66
2022/04/17 03:31:46;;;;;;;0.00;0.00;;;6.90;68.30;;;;;;4183144;28;20084;-65
2022/04/17 03:34:08;;;;;;;0.00;0.00;;;6.90;68.50;;;;;;4169517;28;20059;-68
2022/04/17 03:36:38;;;;;;;0.00;0.00;;;6.80;68.80;;;;;;4169617;28;20115;-67
2022/04/17 03:39:00;;;;;;;0.00;0.00;;;6.70;68.90;;;;;;4168884;28;20049;-71
2022/04/17 03:41:24;;;;;;;0.00;0.00;;;6.60;69.30;;;;;;4155424;28;20499;-69
2022/04/17 03:43:51;;;;;;;0.00;0.00;;;6.50;69.70;;;;;;4183181;28;20341;-68
2022/04/17 03:46:18;;;;;;;0.00;0.00;;;6.60;69.60;;;;;;4182955;28;20103;-66
2022/04/17 03:48:45;;;;;;;0.00;0.00;;;6.70;69.30;;;;;;4169151;28;20049;-66
2022/04/17 03:51:07;;;;;;;0.00;0.00;;;6.50;69.80;;;;;;4169105;28;20061;-72
2022/04/17 03:53:31;;;;;;;0.00;0.00;;;6.50;70.00;;;;;;4169503;28;20355;-68
2022/04/17 03:55:55;;;;;;;0.00;0.00;;;6.70;69.80;;;;;;4169160;28;20376;-67
2022/04/17 03:58:22;;;;;;;0.00;0.00;;;6.80;69.50;;;;;;4182878;28;20041;-67
2022/04/17 04:00:47;;;;;;;0.00;0.00;;;6.90;69.20;;;;;;4168721;28;20462;-74
2022/04/17 04:03:12;;;;;;;0.00;0.00;;;6.90;69.00;;;;;;4182843;28;20080;-72
2022/04/17 04:05:37;;;;;;;0.00;0.00;;;6.70;69.40;;;;;;4155213;28;20038;-69
2022/04/17 04:07:59;;;;;;;0.00;0.00;;;6.70;69.80;;;;;;4168949;28;20076;-69
2022/04/17 04:10:21;;;;;;;0.00;0.00;;;6.70;70.10;;;;;;4168836;28;20048;-67
2022/04/17 04:12:46;;;;;;;0.00;0.00;;;6.60;70.20;;;;;;4168313;28;20565;-68
2022/04/17 04:15:13;;;;;;;0.00;0.00;;;6.70;70.20;;;;;;4182585;28;20055;-73
2022/04/17 04:17:35;;;;;;;0.00;0.00;;;6.70;70.00;;;;;;4168614;28;20151;-66
2022/04/17 04:19:57;;;;;;;0.00;0.00;;;6.80;69.90;;;;;;4182695;28;20099;-65
2022/04/17 04:22:22;;;;;;;0.00;0.00;;;6.90;69.50;;;;;;4168325;28;20352;-65
2022/04/17 04:24:46;;;;;;;0.00;0.00;;;6.90;69.50;;;;;;4168287;28;20041;-66
2022/04/17 04:29:50;;;;;;;0.00;0.00;;;6.70;69.70;;;;;;4182405;28;20056;-71
2022/04/17 04:32:12;;;;;;;0.00;0.00;;;6.60;70.10;;;;;;4168385;28;20045;-68
2022/04/17 04:34:39;;;;;;;0.00;0.00;;;6.60;70.70;;;;;;4182189;28;20068;-67
2022/04/17 04:37:04;;;;;;;0.00;0.00;;;6.70;70.50;;;;;;4181822;28;20044;-70
2022/04/17 04:39:27;;;;;;;0.00;0.00;;;6.70;70.30;;;;;;4182341;28;20040;-66
2022/04/17 04:41:49;;;;;;;0.00;0.00;;;6.70;70.30;;;;;;4155036;28;20519;-66
2022/04/17 04:44:14;;;;;;;0.00;0.00;;;6.80;70.30;;;;;;4182319;28;20095;-67
2022/04/17 04:46:38;;;;;;;0.00;0.00;;;6.80;70.20;;;;;;4182200;28;20053;-70
2022/04/17 04:51:43;;;;;;;0.00;0.00;;;6.90;70.10;;;;;;4168236;28;20056;-68
2022/04/17 04:54:08;;;;;;;0.00;0.00;;;6.90;70.00;;;;;;4168065;28;20049;-67
2022/04/17 04:56:30;;;;;;;0.00;0.00;;;6.90;70.10;;;;;;4181914;28;20107;-71
2022/04/17 04:58:52;;;;;;;0.00;0.00;;;6.80;70.40;;;;;;4167692;28;20115;-68
2022/04/17 05:01:14;;;;;;;0.00;0.00;;;6.90;70.20;;;;;;4154210;28;20054;-69
2022/04/17 05:03:39;;;;;;;0.00;0.00;;;6.90;70.00;;;;;;4141030;28;20558;-68
2022/04/17 05:06:03;;;;;;;0.00;0.00;;;6.90;70.00;;;;;;4167856;28;20487;-67
2022/04/17 05:08:29;;;;;;;0.00;0.00;;;7.00;69.90;;;;;;4140893;28;20053;-67
2022/04/17 05:10:51;;;;;;;0.00;0.00;;;7.00;70.00;;;;;;4153636;28;20535;-69
2022/04/17 05:13:13;;;;;;;0.00;0.00;;;6.90;70.10;;;;;;4167751;28;20037;-67
2022/04/17 05:15:40;;;;;;;0.00;0.00;;;6.90;70.20;;;;;;4167423;28;20060;-68
2022/04/17 05:18:05;;;;;;;0.00;0.00;;;7.00;70.10;;;;;;4140866;28;20124;-69
2022/04/17 05:20:33;;;;;;;0.00;0.00;;;7.00;70.10;;;;;;4153966;28;20046;-69
2022/04/17 05:23:06;;;;;;;0.00;0.00;;;6.90;70.60;;;;;;4168048;28;20053;-69
2022/04/17 05:25:30;;;;;;;0.00;0.00;;;7.00;70.60;;;;;;4168526;28;20427;-69
2022/04/17 05:27:54;;;;;;;0.00;0.00;;;7.20;71.10;;;;;;4168232;28;20069;-69
2022/04/17 05:30:19;;;;;;;0.00;0.00;;;7.40;70.70;;;;;;4167556;28;20121;-67
2022/04/17 05:32:41;;;;;;;0.00;0.00;;;7.50;70.00;;;;;;4153091;28;20421;-71
2022/04/17 05:35:05;;;;;;;0.00;0.00;;;7.70;69.90;;;;;;4154042;28;20070;-70
2022/04/17 05:37:27;;;;;;;0.00;0.00;;;7.80;69.30;;;;;;4153848;28;20049;-70
2022/04/17 05:39:49;;;;;;;0.00;0.00;;;8.00;69.10;;;;;;4153667;28;20050;-71
2022/04/17 05:42:12;;;;;;;0.00;0.00;;;8.10;68.50;;;;;;4167493;28;20049;-70
2022/04/17 05:44:39;;;;;;;0.00;0.00;;;8.20;68.10;;;;;;4153795;28;20049;-67
2022/04/17 05:47:01;;;;;;;0.00;0.00;;;8.20;68.10;;;;;;4153991;28;20652;-71
2022/04/17 05:49:29;;;;;;;0.00;0.00;;;8.20;67.60;;;;;;4167235;28;20121;-70
2022/04/17 05:51:54;;;;;;;0.00;0.00;;;8.30;67.70;;;;;;4153395;28;20085;-70
2022/04/17 05:54:16;;;;;;;0.00;0.00;;;8.40;66.90;;;;;;4139936;28;20034;-72
2022/04/17 05:56:40;;;;;;;0.00;0.00;;;8.30;67.20;;;;;;4153378;28;20461;-70
2022/04/17 05:59:07;;;;;;;0.00;0.00;;;8.30;66.90;;;;;;4166311;28;20041;-73
2022/04/17 06:01:29;;;;;;;0.00;0.00;;;8.30;67.20;;;;;;4152788;28;20147;-68
2022/04/17 06:03:56;;;;;;;0.00;0.00;;;8.60;67.10;;;;;;4153222;28;20128;-70
2022/04/17 06:06:22;;;;;;;0.00;0.00;;;8.70;66.50;;;;;;4166178;28;20041;-71
2022/04/17 06:08:47;;;;;;;0.00;0.00;;;8.70;65.50;;;;;;4166199;28;20042;-71
2022/04/17 06:11:09;;;;;;;0.00;0.00;;;8.70;65.80;;;;;;4166486;28;20068;-70
2022/04/17 06:13:31;;;;;;;0.00;0.00;;;8.60;65.80;;;;;;4166324;28;20043;-70
2022/04/17 06:15:56;;;;;;;0.00;0.00;;;8.70;66.10;;;;;;4166291;28;20108;-70
2022/04/17 06:18:20;;;;;;;0.00;0.00;;;8.90;65.30;;;;;;4166556;28;20041;-70
2022/04/17 06:20:44;;;;;;;0.00;0.00;;;8.80;65.10;;;;;;4152133;28;20046;-72
2022/04/17 06:23:09;;;;;;;0.00;0.00;;;8.90;65.20;;;;;;4166404;28;20085;-72
2022/04/17 06:25:31;;;;;;;0.00;0.00;;;8.90;65.40;;;;;;4166410;28;20080;-71
2022/04/17 06:27:56;;;;;;;0.00;0.00;;;9.10;65.40;;;;;;4166279;28;20054;-70
2022/04/17 06:30:26;;;;;;;0.00;0.00;;;9.30;65.30;;;;;;4166225;28;20080;-68
2022/04/17 06:32:50;;;;;;;0.00;0.00;;;9.50;64.90;;;;;;4166053;28;20368;-71
2022/04/17 06:35:18;;;;;;;0.00;0.00;;;9.70;63.60;;;;;;4166256;28;20140;-72
2022/04/17 06:38:02;;;;;;;0.00;0.00;;;9.80;63.70;;;;;;4166119;28;20056;-70
2022/04/17 06:40:32;;;;;;;0.00;0.00;;;9.90;63.50;;;;;;4166303;28;20049;-69
2022/04/17 06:42:58;;;;;;;0.00;0.00;;;9.90;62.80;;;;;;4179624;28;20057;-70
2022/04/17 06:45:20;;;;;;;0.00;0.00;;;10.00;63.10;;;;;;4164997;28;20045;-70
2022/04/17 06:47:43;;;;;;;0.00;0.00;;;9.70;62.60;;;;;;4152459;28;20053;-70
2022/04/17 06:50:08;;;;;;;0.00;0.00;;;9.80;63.40;;;;;;4166678;28;20076;-70
2022/04/17 06:52:32;;;;;;;0.00;0.00;;;10.10;62.90;;;;;;4152270;28;20065;-73
2022/04/17 06:54:54;;;;;;;0.00;0.00;;;10.20;61.80;;;;;;4165555;28;20049;-70
2022/04/17 06:57:16;;;;;;;0.00;0.00;;;10.20;61.70;;;;;;4152545;28;20491;-69
2022/04/17 06:59:42;;;;;;;0.00;0.00;;;10.20;61.60;;;;;;4131272;28;1187545;-71
2022/04/17 07:02:07;;;;;;;0.00;0.00;;;10.20;62.20;;;;;;4180739;28;20535;-69
2022/04/17 07:04:29;;;;;;;0.00;0.00;;;10.40;62.00;;;;;;4180862;28;20087;-70
2022/04/17 07:06:51;;;;;;;0.00;0.00;;;10.30;61.20;;;;;;4166218;28;20053;-72
2022/04/17 07:09:15;;;;;;;0.00;0.00;;;10.40;61.50;;;;;;4180606;28;20068;-70
2022/04/17 07:11:39;;;;;;;0.00;0.00;;;10.40;61.20;;;;;;4139743;28;20073;-70
2022/04/17 07:14:01;;;;;;;0.00;0.00;;;10.40;61.20;;;;;;4180507;28;20041;-70
2022/04/17 07:16:23;;;;;;;0.00;0.00;;;10.50;61.20;;;;;;4180329;28;20056;-71
2022/04/17 07:18:45;;;;;;;0.00;0.00;;;10.40;60.70;;;;;;4166064;28;20045;-70
2022/04/17 07:21:16;;;;;;;0.00;0.00;;;10.50;60.60;;;;;;4155520;28;20049;-70
2022/04/17 07:23:43;;;;;;;0.00;0.00;;;10.60;60.90;;;;;;4166127;28;20352;-71
2022/04/17 07:26:08;;;;;;;0.00;0.00;;;10.50;60.20;;;;;;4151995;28;20096;-72
2022/04/17 07:28:30;;;;;;;0.00;0.00;;;10.20;61.20;;;;;;4161091;28;20111;-70
2022/04/17 07:30:55;;;;;;;0.00;0.00;;;10.10;61.70;;;;;;4159990;28;20468;-74
2022/04/17 07:33:19;;;;;;;0.00;0.00;;;10.40;60.80;;;;;;4152349;28;20050;-69
2022/04/17 07:35:43;;;;;;;0.00;0.00;;;10.60;60.30;;;;;;4152464;28;20088;-69
2022/04/17 07:38:07;;;;;;;0.00;0.00;;;10.80;60.30;;;;;;4149418;28;20069;-71
2022/04/17 07:40:33;;;;;;;0.00;0.00;;;11.00;59.90;;;;;;4166046;28;20049;-70
2022/04/17 07:42:59;;;;;;;0.00;0.00;;;11.30;59.20;;;;;;4150036;28;20038;-72
2022/04/17 07:45:23;;;;;;;0.00;0.00;;;11.30;59.10;;;;;;4165152;28;20484;-69
2022/04/17 07:47:45;;;;;;;0.00;0.00;;;11.20;59.90;;;;;;4165188;28;20048;-71
2022/04/17 07:50:08;;;;;;;0.00;0.00;;;11.50;59.10;;;;;;4165971;28;20056;-69
2022/04/17 07:52:33;;;;;;;0.00;0.00;;;11.00;59.10;;;;;;4152445;28;20054;-70
2022/04/17 07:54:57;;;;;;;0.00;0.00;;;10.70;60.20;;;;;;4151958;28;20099;-70
2022/04/17 07:57:19;;;;;;;0.00;0.00;;;10.80;60.50;;;;;;4153462;28;20060;-69
2022/04/17 07:59:41;;;;;;;0.00;0.00;;;11.00;59.80;;;;;;4168515;28;20054;-69
2022/04/17 08:02:28;;;;;;;0.00;0.00;;;11.20;59.50;;;;;;4169223;28;20041;-72
2022/04/17 08:04:52;;;;;;;0.00;0.00;;;11.00;59.00;;;;;;4168627;28;20048;-73
2022/04/17 08:07:14;;;;;;;0.00;0.00;;;11.00;59.00;;;;;;4155392;28;20045;-70
2022/04/17 08:09:39;;;;;;;0.00;0.00;;;11.00;59.50;;;;;;4153693;28;20125;-69
2022/04/17 08:12:01;;;;;;;0.00;0.00;;;11.00;59.10;;;;;;4154294;28;20111;-69
2022/04/17 08:14:26;;;;;;;0.00;0.00;;;10.80;59.40;;;;;;4154366;28;20045;-72
2022/04/17 08:16:48;;;;;;;0.00;0.00;;;10.90;59.70;;;;;;4168168;28;20103;-70
2022/04/17 08:19:10;;;;;;;0.00;0.00;;;11.10;59.50;;;;;;4155123;28;20051;-69
2022/04/17 08:21:32;;;;;;;0.00;0.00;;;11.10;58.90;;;;;;4152830;28;20038;-68
2022/04/17 08:23:54;;;;;;;0.00;0.00;;;11.30;59.00;;;;;;4166742;28;20053;-70
2022/04/17 08:26:23;;;;;;;0.00;0.00;;;11.70;58.50;;;;;;4169866;28;20046;-72
2022/04/17 08:28:47;;;;;;;0.00;0.00;;;11.70;57.60;;;;;;4154315;28;20357;-69
2022/04/17 08:31:10;;;;;;;0.00;0.00;;;11.50;57.90;;;;;;4177598;28;20154;-71
2022/04/17 08:33:34;;;;;;;0.00;0.00;;;11.50;58.20;;;;;;4156739;28;20102;-73
2022/04/17 08:35:59;;;;;;;0.00;0.00;;;11.70;58.00;;;;;;4155205;28;20069;-72
2022/04/17 08:38:22;;;;;;;0.00;0.00;;;12.10;57.10;;;;;;4167743;28;20048;-70
2022/04/17 08:40:44;;;;;;;0.00;0.00;;;12.00;57.50;;;;;;4154835;28;20084;-69
2022/04/17 08:43:09;;;;;;;0.00;0.00;;;12.20;57.30;;;;;;4154891;28;20081;-68
2022/04/17 08:45:31;;;;;;;0.00;0.00;;;12.20;57.10;;;;;;4141338;28;20038;-69
2022/04/17 08:47:54;;;;;;;0.00;0.00;;;12.50;56.20;;;;;;4154600;28;20060;-70
2022/04/17 08:50:19;;;;;;;0.00;0.00;;;12.60;56.20;;;;;;4155184;28;20051;-72
2022/04/17 08:52:45;;;;;;;0.00;0.00;;;12.50;55.80;;;;;;4154149;28;20054;-69
2022/04/17 08:55:08;;;;;;;0.00;0.00;;;12.30;55.70;;;;;;4155122;28;20113;-72
2022/04/17 08:57:32;;;;;;;0.00;0.00;;;12.30;56.50;;;;;;4154578;28;20042;-70
2022/04/17 08:59:54;;;;;;;0.00;0.00;;;12.40;56.30;;;;;;4154372;28;20056;-71
2022/04/17 09:02:19;;;;;;;0.00;0.00;;;12.50;56.60;;;;;;4168376;28;20132;-71
2022/04/17 09:04:43;;;;;;;0.00;0.00;;;12.60;56.80;;;;;;4154348;28;20550;-71
2022/04/17 09:07:11;;;;;;;0.00;0.00;;;13.10;56.40;;;;;;4155081;28;20551;-71
2022/04/17 09:09:47;;;;;;;0.00;0.00;;;13.20;55.70;;;;;;4168209;28;20050;-70
2022/04/17 09:12:21;;;;;;;0.00;0.00;;;13.40;55.60;;;;;;4154535;28;20046;-69
2022/04/17 09:14:46;;;;;;;0.00;0.00;;;13.20;55.30;;;;;;4140636;28;20049;-70
2022/04/17 09:17:13;;;;;;;0.00;0.00;;;13.10;55.70;;;;;;4168249;28;20045;-69
2022/04/17 09:19:42;;;;;;;0.00;0.00;;;13.20;55.90;;;;;;4141357;28;20034;-69
2022/04/17 09:22:09;;;;;;;0.00;0.00;;;13.30;55.80;;;;;;4154722;28;20126;-72
2022/04/17 09:24:36;;;;;;;0.00;0.00;;;13.30;55.60;;;;;;4154376;28;20038;-69
2022/04/17 09:26:59;;;;;;;0.00;0.00;;;13.60;55.50;;;;;;4167588;28;20054;-68
2022/04/17 09:29:26;;;;;;;0.00;0.00;;;13.70;54.40;;;;;;4167960;28;20041;-69
2022/04/17 09:32:04;;;;;;;0.00;0.00;;;13.80;54.70;;;;;;4168235;28;20053;-69
2022/04/17 09:34:28;;;;;;;0.00;0.00;;;14.00;55.20;;;;;;4168120;28;20419;-69
2022/04/17 09:36:58;;;;;;;0.00;0.00;;;14.10;54.80;;;;;;4153711;28;20054;-70
2022/04/17 09:39:34;;;;;;;0.00;0.00;;;14.20;53.50;;;;;;4154733;28;20048;-69
2022/04/17 09:42:05;;;;;;;0.00;0.00;;;13.90;53.90;;;;;;4154323;28;20053;-69
2022/04/17 09:44:38;;;;;;;0.00;0.00;;;13.70;54.40;;;;;;4154286;28;20060;-68
2022/04/17 09:47:01;;;;;;;0.00;0.00;;;13.60;54.50;;;;;;4167468;28;20045;-69
2022/04/17 09:49:28;;;;;;;0.00;0.00;;;13.70;55.30;;;;;;4167788;28;20049;-68
2022/04/17 09:52:07;;;;;;;0.00;0.00;;;14.00;55.10;;;;;;4153993;28;20042;-69
2022/04/17 09:54:30;;;;;;;0.00;0.00;;;13.70;55.00;;;;;;4153784;28;20042;-70
2022/04/17 09:56:58;;;;;;;0.00;0.00;;;13.80;55.10;;;;;;4167236;28;20136;-68
2022/04/17 09:59:24;;;;;;;0.00;0.00;;;14.10;54.30;;;;;;4167343;28;20076;-67
2022/04/17 10:01:47;;;;;;;0.00;0.00;;;14.20;53.90;;;;;;4167577;28;20049;-69
2022/04/17 10:04:11;;;;;;;0.00;0.00;;;14.30;53.60;;;;;;4153824;28;20034;-69
2022/04/17 10:06:34;;;;;;;0.00;0.00;;;13.90;52.60;;;;;;4167615;28;20436;-70
2022/04/17 10:08:58;;;;;;;0.00;0.00;;;13.70;53.80;;;;;;4166966;28;20071;-70
2022/04/17 10:11:20;;;;;;;0.00;0.00;;;13.80;54.20;;;;;;4167566;28;20095;-69
2022/04/17 10:13:46;;;;;;;0.00;0.00;;;13.50;54.20;;;;;;4167492;28;20471;-68
2022/04/17 10:16:09;;;;;;;0.00;0.00;;;13.30;54.30;;;;;;4167564;28;20072;-68
2022/04/17 10:18:39;;;;;;;0.00;0.00;;;13.40;54.80;;;;;;4167574;28;20091;-70
2022/04/17 10:21:03;;;;;;;0.00;0.00;;;13.70;54.50;;;;;;4180811;28;20041;-72
2022/04/17 10:23:28;;;;;;;0.00;0.00;;;13.90;54.40;;;;;;4153612;28;20053;-68
2022/04/17 10:25:52;;;;;;;0.00;0.00;;;13.90;53.40;;;;;;4153544;28;20057;-71
2022/04/17 10:28:16;;;;;;;0.00;0.00;;;13.50;54.10;;;;;;4153411;28;20045;-71
2022/04/17 10:31:05;;;;;;;0.00;0.00;;;13.40;54.90;;;;;;4167279;28;20053;-73
2022/04/17 10:33:34;;;;;;;0.00;0.00;;;13.50;54.70;;;;;;4153147;28;20069;-67
2022/04/17 10:36:35;;;;;;;0.00;0.00;;;13.50;53.50;;;;;;4140023;28;20108;-72
2022/04/17 10:39:12;;;;;;;0.00;0.00;;;13.40;53.60;;;;;;4153138;28;20045;-67
2022/04/17 10:41:35;;;;;;;0.00;0.00;;;13.40;54.50;;;;;;4153594;28;20408;-68
2022/04/17 10:44:03;;;;;;;0.00;0.00;;;13.40;54.60;;;;;;4153471;28;20104;-70
2022/04/17 10:46:26;;;;;;;0.00;0.00;;;13.30;55.20;;;;;;4153286;28;20042;-71
2022/04/17 10:49:01;;;;;;;0.00;0.00;;;13.40;55.50;;;;;;4140505;28;20052;-69
2022/04/17 10:51:30;;;;;;;0.00;0.00;;;13.60;55.10;;;;;;4167057;28;20464;-68
2022/04/17 10:54:10;;;;;;;0.00;0.00;;;13.90;54.80;;;;;;4153332;28;20054;-69
2022/04/17 10:56:40;;;;;;;0.00;0.00;;;13.70;54.50;;;;;;4166843;28;20057;-68
2022/04/17 10:59:15;;;;;;;0.00;0.00;;;13.60;55.10;;;;;;4152071;28;20053;-71
2022/04/17 11:01:43;;;;;;;0.00;0.00;;;13.90;56.00;;;;;;4139566;28;20082;-67
2022/04/17 11:04:27;;;;;;;0.00;0.00;;;14.20;55.60;;;;;;4153595;28;20081;-67
2022/04/17 11:07:12;;;;;;;0.00;0.00;;;14.40;55.60;;;;;;4152655;28;20112;-69
2022/04/17 11:09:39;;;;;;;0.00;0.00;;;14.40;54.60;;;;;;4153081;28;20098;-71
2022/04/17 11:12:11;;;;;;;0.00;0.00;;;14.60;53.30;;;;;;4166866;28;20046;-70
2022/04/17 11:14:33;;;;;;;0.00;0.00;;;14.70;52.90;;;;;;4167011;28;20084;-69
2022/04/17 11:17:07;;;;;;;0.00;0.00;;;14.70;53.80;;;;;;4166523;28;20041;-69
2022/04/17 11:19:31;;;;;;;0.00;0.00;;;14.90;53.60;;;;;;4153562;28;20104;-70
2022/04/17 11:21:56;;;;;;;0.00;0.00;;;15.00;53.50;;;;;;4153193;28;20148;-68
2022/04/17 11:24:21;;;;;;;0.00;0.00;;;15.10;52.40;;;;;;4167245;28;20049;-68
2022/04/17 11:26:52;;;;;;;0.00;0.00;;;14.90;52.80;;;;;;4152754;28;20052;-68
2022/04/17 11:29:35;;;;;;;0.00;0.00;;;15.00;52.70;;;;;;4166834;28;20136;-68
2022/04/17 11:31:57;;;;;;;0.00;0.00;;;15.10;52.90;;;;;;4127809;28;20373;-68
2022/04/17 11:34:19;;;;;;;0.00;0.00;;;15.00;52.40;;;;;;4156497;28;20439;-70
2022/04/17 11:36:49;;;;;;;0.00;0.00;;;15.00;53.50;;;;;;4156006;28;20061;-70
2022/04/17 11:39:11;;;;;;;0.00;0.00;;;15.10;53.20;;;;;;4170107;28;20419;-69
2022/04/17 11:41:38;;;;;;;0.00;0.00;;;15.20;52.60;;;;;;4156441;28;20042;-68
2022/04/17 11:44:10;;;;;;;0.00;0.00;;;15.20;51.30;;;;;;4156383;28;20072;-70
2022/04/17 11:46:34;;;;;;;0.00;0.00;;;15.30;50.80;;;;;;4169935;28;20060;-67
2022/04/17 11:48:57;;;;;;;0.00;0.00;;;15.40;52.10;;;;;;4169184;28;20075;-68
2022/04/17 11:51:22;;;;;;;0.00;0.00;;;15.40;51.50;;;;;;4142588;28;20429;-70
2022/04/17 11:53:49;;;;;;;0.00;0.00;;;15.60;51.60;;;;;;4142463;28;20057;-70
2022/04/17 11:56:16;;;;;;;0.00;0.00;;;15.80;51.20;;;;;;4169556;28;20049;-68
2022/04/17 11:58:40;;;;;;;0.00;0.00;;;15.80;50.80;;;;;;4155479;28;20045;-70
2022/04/17 12:01:07;;;;;;;0.00;0.00;;;16.00;50.30;;;;;;4169470;28;20057;-68
2022/04/17 12:03:36;;;;;;;0.00;0.00;;;16.00;50.20;;;;;;4155531;28;20205;-68
2022/04/17 12:06:02;;;;;;;0.00;0.00;;;15.90;49.90;;;;;;4169507;28;20052;-70
2022/04/17 12:08:35;;;;;;;0.00;0.00;;;15.80;49.80;;;;;;4155562;28;20042;-68
2022/04/17 12:10:57;;;;;;;0.00;0.00;;;15.70;49.70;;;;;;4168877;28;20064;-67
2022/04/17 12:13:21;;;;;;;0.00;0.00;;;15.80;50.50;;;;;;4155464;28;20045;-69
2022/04/17 12:15:44;;;;;;;0.00;0.00;;;16.10;50.80;;;;;;4155656;28;20181;-68
2022/04/17 12:18:06;;;;;;;0.00;0.00;;;16.20;49.40;;;;;;4169323;28;20460;-71
2022/04/17 12:20:28;;;;;;;0.00;0.00;;;16.10;49.30;;;;;;4155576;28;20057;-70
2022/04/17 12:22:51;;;;;;;0.00;0.00;;;16.00;50.10;;;;;;4168747;28;20120;-69
2022/04/17 12:25:19;;;;;;;0.00;0.00;;;16.00;48.10;;;;;;4168942;28;20107;-66
2022/04/17 12:27:44;;;;;;;0.00;0.00;;;15.90;50.30;;;;;;4169058;28;20046;-68
2022/04/17 12:30:06;;;;;;;0.00;0.00;;;16.00;51.50;;;;;;4168898;28;20112;-67
2022/04/17 12:32:31;;;;;;;0.00;0.00;;;16.30;51.20;;;;;;4168836;28;20048;-66
2022/04/17 12:35:05;;;;;;;0.00;0.00;;;16.50;50.00;;;;;;4154809;28;20064;-68
2022/04/17 12:37:32;;;;;;;0.00;0.00;;;16.60;49.80;;;;;;4154938;28;20041;-70
2022/04/17 12:40:07;;;;;;;0.00;0.00;;;16.50;47.70;;;;;;4154933;28;20049;-69
2022/04/17 12:42:30;;;;;;;0.00;0.00;;;16.20;46.60;;;;;;4155034;28;20084;-69
2022/04/17 12:44:52;;;;;;;0.00;0.00;;;16.10;46.50;;;;;;4154588;28;20137;-67
2022/04/17 12:47:15;;;;;;;0.00;0.00;;;16.10;46.70;;;;;;4155289;28;20488;-68
2022/04/17 12:49:40;;;;;;;0.00;0.00;;;16.10;47.20;;;;;;4154881;28;20439;-68
2022/04/17 12:52:06;;;;;;;0.00;0.00;;;16.20;47.30;;;;;;4168635;28;20057;-68
2022/04/17 12:54:36;;;;;;;0.00;0.00;;;16.50;46.80;;;;;;4155044;28;20073;-68
2022/04/17 12:57:13;;;;;;;0.00;0.00;;;16.60;46.20;;;;;;4168214;28;20045;-68
2022/04/17 12:59:42;;;;;;;0.00;0.00;;;16.70;46.90;;;;;;4152353;28;20380;-68